Fort Smith, AR

4:52 PM CST on November 23, 2014 (GMT -0600)
Fort Smith Regional | Change Station
CLOSE
Current Station
Airport
Location: Fort Smith,
Elevation: 463 ft
Nearby Weather Stations

Elev 463 ft 35.33 °N, 94.36 °W | Updated 59 minutes ago

Partly Cloudy
Partly Cloudy
70 °F
Feels Like 70 °F
N
17
Wind Variable Wind from SW

Today
High -- | Low -- °F
--% Chance of Precip.
Yesterday
High -- | Low -- °F
Precip. -- in
7:00 AM 5:07 PM
New Moon, 2% visible
Pressure 29.29 in
Visibility 10.0 miles
Clouds Scattered Clouds 4700 ft
Dew Point 53 °F
Humidity 55%
Rainfall 0.00 in
Snow Depth Not available.
UV 1 out of 12
Pollen .60 out of 12
Air Quality Not available.
Flu Activity Not available.
METAR KFSM 232153Z AUTO 22015KT 10SM SCT047 21/12 A2930 RMK AO2 SLP917 T02110117 TSNO

More Conditions Fewer Conditions

Pressure 29.29 in
Visibility 10.0 miles
Clouds Scattered Clouds 4700 ft
Dew Point 53 °F
Humidity 55%
Rainfall 0.00 in
Snow Depth Not available.
UV 1 out of 12
Pollen .60 out of 12
Air Quality Not available.
Flu Activity Not available.
METAR KFSM 232153Z AUTO 22015KT 10SM SCT047 21/12 A2930 RMK AO2 SLP917 T02110117 TSNO

More Conditions Fewer Conditions

Nowcast | as of 3:45 PM CST on November 23, 2014

At 3:45 PM... National Weather Service radars indicate rain showers developing ahead of a cold front across northeast Oklahoma. This activity was generally located east of a line from Bartlesville... to Tulsa... to Stillwell... and was moving to the northeast at about 35 mph. Through 5:30 PM... as a cold front rapidly approaches the area... scattered showers and possibly an isolated thunderstorm will be possible across northeast Oklahoma and northwest Arkansas. These showers will be brief as they are moving quickly. Shower activity should end with passage of the front.

×

10-Day Weather Forecast

Almanac

Astronomy

Nov. 23, 2014 Rise Set
Actual Time
Civil Twilight
Nautical Twilight
Astronomical Twilight
Moon
Length of Visible Light
Length of Day
Tomorrow will be .
, % of the Moon is Illuminated

Today's Extremes

State Highs State Lows

Community

WunderPhotos

Upload Photos

1,773,187 photos uploaded!

WunderBlogs® & News

Nearby

Air Quality

  Air Quality AQ Index Pollutant
Not available.

Snow Depth

Station Depth Elevation

Earthquake Activity

City Distance Mag. Time & Date
Minimum magnitude displayed is 2.5.

Coastal Water Temperatures

Place Temperature

Nearby Weather Stations